Airfield :







YOU CAN JOIN US ON...

 
LOGIN :

Register | Disclaimer

   EN    FR    IT 

 









Legend :    VFR   Marginal VFR   IFR   Intensive IFR   Very Intensive IFR
Visi :
Ceiling :
>= 8 km
>= 3000ft
5 to 8 km
1000 to 3000 ft
1500m to 5 km
500 to 1000 ft
800 to 1500m
200 to 500 ft
< 800m
< 200 ft
Symbols :   Thunderstorms  Fog  Heavy snow  Heavy precipitations  Wind > 20 kt






- Airport Elevation : 234 ft
- IATA code : PBG


KPBG - Plattsburgh International

CURRENT METAR :
  • 011753Z AUTO 03010KT 10SM FEW043 08/M02 A2987 RMK AO2 SLP119 T00781022 10083 20000 57015

EXPIRED METARs :
  • 011653Z AUTO 36009G19KT 10SM SCT038 07/M02 A2989 RMK AO2 SLP124 T00671022
  • 011553Z AUTO 02011KT 10SM FEW029 06/M01 A2990 RMK AO2 SLP129 T00611011

TAF KPBG
Valid from the 01 at 18:00 until the 02 at 18:00 UTC


011722Z 0118/0218 01010KT P6SM SCT090
FM020400 34009KT P6SM BKN025
FM021300 34011KT P6SM OVC015
FM021700 34013KT P6SM VCSH OVC022



MET'MAP, your aeronautical weather chart ! - Copyright ORBIFLY December 2007 - Disclaimer

ORBIFLY MET'MAP TEAM :

Programming & Development : Alexandra Zaïnal
Concept & original design : Baudouin d'Aumeries
Assistance for programming : Marc-Olivier Méhu
Technical & hardware support : Manuel Goepfert

Contact : metmap@orbifly.com




SOURCES & CREDITS :

   NOAA